createdAt,value
2019-03-03T13:34:06.102Z,1.70
2019-03-03T13:36:43.181Z,1.70
2019-03-03T13:39:15.598Z,1.70
2019-03-03T13:41:49.866Z,1.60
2019-03-03T13:44:16.358Z,1.80
2019-03-03T13:46:42.608Z,1.40
2019-03-03T13:49:09.068Z,1.50
2019-03-03T13:51:35.585Z,1.30
2019-03-03T13:54:01.940Z,1.40
2019-03-03T13:56:30.131Z,1.77
2019-03-03T13:58:56.690Z,1.50
2019-03-03T14:01:22.973Z,1.80
2019-03-03T14:03:49.558Z,1.50
2019-03-03T14:06:16.023Z,1.70
2019-03-03T14:08:42.441Z,1.77
2019-03-03T14:11:08.859Z,2.10
2019-03-03T14:13:35.254Z,1.37
2019-03-03T14:16:01.548Z,1.43
2019-03-03T14:18:28.009Z,1.30
2019-03-03T14:20:54.596Z,1.53
2019-03-03T14:23:20.967Z,1.40
2019-03-03T14:25:47.279Z,1.40
2019-03-03T14:28:13.588Z,1.50
2019-03-03T14:30:40.046Z,1.67
2019-03-03T14:33:06.296Z,1.30
2019-03-03T14:35:32.754Z,1.50
2019-03-03T14:37:59.007Z,1.73
2019-03-03T14:40:25.291Z,1.40
2019-03-03T14:42:51.676Z,1.60
2019-03-03T14:45:18.258Z,1.83
2019-03-03T14:47:44.949Z,1.50
2019-03-03T14:50:15.138Z,1.70
2019-03-03T14:52:43.169Z,1.40
2019-03-03T14:55:16.955Z,1.50
2019-03-03T14:57:43.445Z,2.90
2019-03-03T15:00:23.312Z,1.40
2019-03-03T15:02:50.871Z,1.50
2019-03-03T15:05:17.242Z,2.47
2019-03-03T15:07:45.809Z,1.40
2019-03-03T15:10:12.786Z,1.50
2019-03-03T15:12:39.354Z,1.37
2019-03-03T15:15:11.305Z,1.70
2019-03-03T15:17:37.771Z,1.93
2019-03-03T15:20:06.027Z,1.53
2019-03-03T15:22:32.415Z,1.37
2019-03-03T15:24:59.077Z,1.33
2019-03-03T15:27:25.732Z,1.60
2019-03-03T15:29:52.014Z,1.07
2019-03-03T15:32:18.306Z,1.20
2019-03-03T15:34:45.688Z,2.00
2019-03-03T15:37:13.187Z,1.37
2019-03-03T15:39:39.566Z,1.57
2019-03-03T15:42:06.034Z,1.83
2019-03-03T15:44:32.606Z,2.07
2019-03-03T15:46:59.298Z,1.20
2019-03-03T15:49:49.353Z,1.40
2019-03-03T15:52:11.609Z,1.37
2019-03-03T15:54:41.575Z,1.27
2019-03-03T15:57:08.299Z,1.50
2019-03-03T15:59:34.962Z,1.17
2019-03-03T16:02:02.779Z,1.00
2019-03-03T16:04:29.377Z,1.30
2019-03-03T16:06:55.641Z,1.37
2019-03-03T16:09:22.067Z,1.50
2019-03-03T16:11:48.498Z,1.37
2019-03-03T16:14:14.838Z,1.90
2019-03-03T16:16:41.239Z,1.70
2019-03-03T16:19:08.116Z,1.70
2019-03-03T16:21:34.384Z,1.50
2019-03-03T16:24:00.654Z,1.53
2019-03-03T16:26:27.423Z,1.30
2019-03-03T16:28:53.662Z,2.23
2019-03-03T16:31:19.973Z,1.80
2019-03-03T16:33:46.506Z,1.80
2019-03-03T16:36:12.985Z,1.40
2019-03-03T16:38:39.453Z,1.30
2019-03-03T16:41:06.176Z,1.30
2019-03-03T16:43:32.556Z,1.43
2019-03-03T16:45:59.185Z,2.10
2019-03-03T16:48:25.923Z,1.97
2019-03-03T16:50:52.213Z,2.50
2019-03-03T16:53:18.603Z,2.10
2019-03-03T16:55:45.132Z,1.50
2019-03-03T16:58:11.977Z,1.77
2019-03-03T17:00:38.714Z,1.30
2019-03-03T17:03:05.067Z,1.37
2019-03-03T17:05:31.602Z,1.30
2019-03-03T17:07:58.240Z,1.33
2019-03-03T17:10:24.623Z,1.50
2019-03-03T17:12:51.365Z,1.20
2019-03-03T17:15:24.361Z,2.00
2019-03-03T17:17:51.287Z,2.23
2019-03-03T17:20:18.137Z,1.33
2019-03-03T17:22:44.531Z,1.43
2019-03-03T17:25:16.323Z,1.73
2019-03-03T17:27:42.830Z,2.27
2019-03-03T17:30:18.970Z,1.50
2019-03-03T17:32:48.281Z,1.43
2019-03-03T17:35:17.043Z,1.40
2019-03-03T17:37:44.783Z,1.60
2019-03-03T17:40:19.655Z,1.47
2019-03-03T17:42:47.991Z,1.40
2019-03-03T17:45:19.416Z,1.40
2019-03-03T17:47:47.236Z,1.80
2019-03-03T17:50:20.554Z,1.77
2019-03-03T17:52:48.666Z,1.77
2019-03-03T17:55:17.459Z,1.83
2019-03-03T17:57:45.430Z,1.67
2019-03-03T18:00:45.616Z,1.80
2019-03-03T18:03:13.467Z,1.63
2019-03-03T18:05:41.429Z,1.67
2019-03-03T18:08:09.599Z,2.53
2019-03-03T18:10:37.484Z,1.90
2019-03-03T18:13:13.061Z,2.20
2019-03-03T18:15:46.711Z,1.70
2019-03-03T18:18:32.616Z,1.87
2019-03-03T18:21:14.076Z,2.27
2019-03-03T18:23:42.086Z,2.03
2019-03-03T18:26:12.473Z,2.20
2019-03-03T18:28:43.948Z,1.83
2019-03-03T18:31:11.887Z,1.97
2019-03-03T18:33:41.658Z,2.43
2019-03-03T18:36:09.803Z,1.53
2019-03-03T18:38:37.703Z,1.60
2019-03-03T18:41:06.392Z,1.60
2019-03-03T18:43:34.397Z,2.00
2019-03-03T18:46:02.364Z,1.40
2019-03-03T18:48:30.408Z,1.80
2019-03-03T18:50:58.389Z,2.03
2019-03-03T18:53:26.455Z,1.70
2019-03-03T18:55:54.367Z,2.07
2019-03-03T18:58:22.512Z,2.00
2019-03-03T19:00:52.388Z,1.87
2019-03-03T19:03:21.711Z,2.10
2019-03-03T19:05:55.808Z,2.00
2019-03-03T19:08:23.715Z,1.83
2019-03-03T19:10:51.772Z,2.30
2019-03-03T19:13:19.703Z,1.90
2019-03-03T19:16:00.819Z,1.90
2019-03-03T19:18:28.911Z,2.20
2019-03-03T19:20:56.941Z,2.00
2019-03-03T19:23:25.382Z,1.80
2019-03-03T19:25:53.433Z,2.73
2019-03-03T19:28:21.777Z,2.37
2019-03-03T19:30:50.045Z,2.30
2019-03-03T19:33:32.174Z,2.67
2019-03-03T19:36:00.341Z,2.87
2019-03-03T19:38:29.938Z,2.77
2019-03-03T19:40:59.157Z,2.83
2019-03-03T19:43:28.031Z,2.70
2019-03-03T19:46:00.420Z,3.00
2019-03-03T19:48:28.424Z,3.70
2019-03-03T19:50:56.524Z,3.20
2019-03-03T19:53:24.820Z,3.20
2019-03-03T19:55:55.174Z,3.00
2019-03-03T19:58:24.319Z,4.17
2019-03-03T20:00:52.345Z,3.07
2019-03-03T20:03:36.757Z,3.87
2019-03-03T20:06:06.542Z,3.50
2019-03-03T20:08:35.031Z,3.27
2019-03-03T20:11:12.222Z,2.70
2019-03-03T20:13:46.543Z,2.70
2019-03-03T20:16:24.303Z,2.77
2019-03-03T20:18:59.673Z,3.50
2019-03-03T20:21:43.499Z,2.90
2019-03-03T20:24:12.269Z,3.40
2019-03-03T20:26:40.479Z,2.50
2019-03-03T20:29:08.644Z,2.90
2019-03-03T20:31:39.909Z,2.67
2019-03-03T20:34:08.283Z,2.87
2019-03-03T20:36:36.239Z,2.53
2019-03-03T20:39:07.590Z,2.60
2019-03-03T20:41:37.444Z,2.40
2019-03-03T20:44:06.919Z,3.17
2019-03-03T20:46:35.517Z,2.67
2019-03-03T20:49:04.237Z,2.30
2019-03-03T20:51:32.432Z,3.20
2019-03-03T20:54:02.114Z,4.70
2019-03-03T20:56:30.216Z,3.97
2019-03-03T20:58:58.178Z,3.80
2019-03-03T21:01:26.130Z,3.27
2019-03-03T21:03:54.322Z,3.00
2019-03-03T21:06:22.297Z,2.63
2019-03-03T21:08:50.564Z,2.57
2019-03-03T21:11:18.530Z,2.13
2019-03-03T21:13:46.411Z,2.60
2019-03-03T21:16:14.415Z,2.67
2019-03-03T21:18:42.508Z,1.80
2019-03-03T21:21:10.828Z,1.87
2019-03-03T21:23:38.860Z,2.97
2019-03-03T21:26:06.930Z,2.03
2019-03-03T21:28:34.850Z,2.20
2019-03-03T21:31:02.927Z,2.90
2019-03-03T21:33:30.938Z,2.90
2019-03-03T21:35:59.320Z,2.23
2019-03-03T21:38:27.113Z,2.00
2019-03-03T21:40:55.098Z,2.10
2019-03-03T21:43:23.113Z,1.83
2019-03-03T21:45:51.195Z,1.70
2019-03-03T21:48:20.506Z,2.10
2019-03-03T21:50:48.201Z,2.03
2019-03-03T21:53:15.355Z,2.53
2019-03-03T21:55:42.366Z,2.40
2019-03-03T21:58:09.592Z,1.93
2019-03-03T22:00:41.637Z,2.50
2019-03-03T22:03:09.926Z,1.63
2019-03-03T22:05:36.360Z,1.57
2019-03-03T22:08:03.338Z,1.83
2019-03-03T22:10:30.469Z,1.50
2019-03-03T22:12:59.396Z,1.90
2019-03-03T22:15:26.662Z,2.20
2019-03-03T22:17:52.995Z,1.87
2019-03-03T22:20:19.427Z,2.20
2019-03-03T22:22:45.714Z,2.00
2019-03-03T22:25:12.531Z,2.00
2019-03-03T22:27:39.383Z,1.50
2019-03-03T22:30:12.600Z,1.87
2019-03-03T22:32:39.008Z,1.87
2019-03-03T22:35:06.703Z,1.47
2019-03-03T22:37:34.883Z,1.70
2019-03-03T22:40:01.648Z,1.80
2019-03-03T22:42:28.002Z,1.90
2019-03-03T22:44:54.261Z,2.50
2019-03-03T22:47:21.607Z,1.80
2019-03-03T22:49:48.071Z,1.97
2019-03-03T22:52:14.373Z,2.17
2019-03-03T22:54:40.630Z,1.70
2019-03-03T22:57:07.001Z,1.67
2019-03-03T22:59:33.282Z,1.80
2019-03-03T23:01:59.675Z,1.60
2019-03-03T23:04:52.858Z,2.00
2019-03-03T23:07:36.756Z,2.30
2019-03-03T23:10:39.393Z,2.23
2019-03-03T23:13:35.722Z,2.20
2019-03-03T23:16:16.620Z,2.00
2019-03-03T23:19:00.626Z,2.00
2019-03-03T23:21:55.624Z,2.10
2019-03-03T23:24:45.835Z,2.00
2019-03-03T23:27:12.288Z,1.97
2019-03-03T23:29:38.686Z,2.20
2019-03-03T23:32:05.113Z,1.80
2019-03-03T23:34:31.867Z,1.70
2019-03-03T23:36:58.130Z,1.93
2019-03-03T23:39:24.652Z,2.00
2019-03-03T23:41:50.913Z,1.70
2019-03-03T23:44:17.179Z,1.67
2019-03-03T23:46:43.530Z,1.70
2019-03-03T23:49:09.880Z,1.80
2019-03-03T23:51:36.346Z,1.97
2019-03-03T23:54:02.696Z,1.70
2019-03-03T23:56:30.408Z,1.80
2019-03-03T23:58:56.682Z,1.70
